createdAt,value
2018-06-27T00:01:04.875Z,67.10
2018-06-27T00:03:34.197Z,66.36
2018-06-27T00:06:04.015Z,66.65
2018-06-27T00:08:33.331Z,66.73
2018-06-27T00:11:03.387Z,67.08
2018-06-27T00:13:32.942Z,67.04
2018-06-27T00:16:02.646Z,67.14
2018-06-27T00:18:32.560Z,67.26
2018-06-27T00:21:01.948Z,67.08
2018-06-27T00:23:31.243Z,67.90
2018-06-27T00:26:01.343Z,67.45
2018-06-27T00:28:30.759Z,66.97
2018-06-27T00:31:00.499Z,67.01
2018-06-27T00:33:29.781Z,67.35
2018-06-27T00:35:59.493Z,66.73
2018-06-27T00:38:29.212Z,67.02
2018-06-27T00:40:58.779Z,68.02
2018-06-27T00:43:28.086Z,67.67
2018-06-27T00:45:58.470Z,68.43
2018-06-27T00:48:27.810Z,68.75
2018-06-27T00:50:57.441Z,68.90
2018-06-27T00:53:32.219Z,69.26
2018-06-27T00:56:02.343Z,68.85
2018-06-27T00:58:32.124Z,69.11
2018-06-27T01:01:02.826Z,69.35
2018-06-27T01:03:32.131Z,69.69
2018-06-27T01:06:01.468Z,70.36
2018-06-27T01:08:30.817Z,70.96
2018-06-27T01:11:00.464Z,71.12
2018-06-27T01:13:30.589Z,71.03
2018-06-27T01:16:00.374Z,71.43
2018-06-27T01:18:29.726Z,71.77
2018-06-27T01:20:59.064Z,71.98
2018-06-27T01:23:28.396Z,72.70
2018-06-27T01:25:57.804Z,73.35
2018-06-27T01:28:27.460Z,73.13
2018-06-27T01:30:57.344Z,72.71
2018-06-27T01:33:26.907Z,72.84
2018-06-27T01:35:56.224Z,73.08
2018-06-27T01:38:25.912Z,72.89
2018-06-27T01:40:55.641Z,73.85
2018-06-27T01:43:25.206Z,74.02
2018-06-27T01:45:54.528Z,75.03
2018-06-27T01:48:23.923Z,75.46
2018-06-27T01:50:53.630Z,74.79
2018-06-27T01:53:23.334Z,75.28
2018-06-27T01:55:53.004Z,74.96
2018-06-27T01:58:22.364Z,75.31
2018-06-27T02:00:51.704Z,75.39
2018-06-27T02:03:21.983Z,75.83
2018-06-27T02:05:51.659Z,75.39
2018-06-27T02:08:20.995Z,75.64
2018-06-27T02:10:50.651Z,75.07
2018-06-27T02:13:19.943Z,74.33
2018-06-27T02:15:49.669Z,74.49
2018-06-27T02:18:19.931Z,74.51
2018-06-27T02:20:49.367Z,73.94
2018-06-27T02:23:18.686Z,73.85
2018-06-27T02:25:48.317Z,74.14
2018-06-27T02:28:17.881Z,74.13
2018-06-27T02:30:47.672Z,73.90
2018-06-27T02:33:22.787Z,73.44
2018-06-27T02:35:52.105Z,75.55
2018-06-27T02:38:21.973Z,74.73
2018-06-27T02:40:51.612Z,74.50
2018-06-27T02:43:21.440Z,74.61
2018-06-27T02:45:51.560Z,74.29
2018-06-27T02:48:20.923Z,74.29
2018-06-27T02:50:50.625Z,74.31
2018-06-27T02:53:20.228Z,73.80
2018-06-27T02:55:50.509Z,74.00
2018-06-27T02:58:19.841Z,74.98
2018-06-27T03:00:49.981Z,75.29
2018-06-27T03:03:19.649Z,74.40
2018-06-27T03:05:49.006Z,74.85
2018-06-27T03:08:18.300Z,74.22
2018-06-27T03:10:48.436Z,74.17
2018-06-27T03:13:18.069Z,74.43
2018-06-27T03:15:47.702Z,74.76
2018-06-27T03:18:17.010Z,74.74
2018-06-27T03:20:46.706Z,74.98
2018-06-27T03:23:16.605Z,74.76
2018-06-27T03:25:46.578Z,74.82
2018-06-27T03:28:15.947Z,75.74
2018-06-27T03:30:45.571Z,75.09
2018-06-27T03:33:15.332Z,74.98
2018-06-27T03:35:44.968Z,74.83
2018-06-27T03:38:15.214Z,75.20
2018-06-27T03:40:44.568Z,75.13
2018-06-27T03:43:13.898Z,75.30
2018-06-27T03:45:43.304Z,75.27
2018-06-27T03:48:13.095Z,75.61
2018-06-27T03:50:44.052Z,75.59
2018-06-27T03:53:13.403Z,75.31
2018-06-27T03:55:42.808Z,75.06
2018-06-27T03:58:12.329Z,75.46
2018-06-27T04:00:42.123Z,74.78
2018-06-27T04:03:12.624Z,74.61
2018-06-27T04:05:41.990Z,74.68
2018-06-27T04:08:11.322Z,74.35
2018-06-27T04:10:40.677Z,74.91
2018-06-27T04:13:10.178Z,75.14
2018-06-27T04:15:39.501Z,74.73
2018-06-27T04:18:08.944Z,75.27
2018-06-27T04:20:40.045Z,74.78
2018-06-27T04:23:09.764Z,74.91
2018-06-27T04:25:40.781Z,74.65
2018-06-27T04:28:10.402Z,75.15
2018-06-27T04:30:41.278Z,75.67
2018-06-27T04:33:10.589Z,75.59
2018-06-27T04:35:40.366Z,75.59
2018-06-27T04:38:09.678Z,75.13
2018-06-27T04:40:39.442Z,75.35
2018-06-27T04:43:08.828Z,75.13
2018-06-27T04:45:39.385Z,75.33
2018-06-27T04:48:08.711Z,75.16
2018-06-27T04:50:38.143Z,75.54
2018-06-27T04:53:07.480Z,75.32
2018-06-27T04:55:37.236Z,75.07
2018-06-27T04:58:06.704Z,75.41
2018-06-27T05:00:36.163Z,75.28
2018-06-27T05:03:05.472Z,75.06
2018-06-27T05:05:35.028Z,74.99
2018-06-27T05:08:04.393Z,74.40
2018-06-27T05:10:34.953Z,74.71
2018-06-27T05:13:04.302Z,74.36
2018-06-27T05:15:34.299Z,74.48
2018-06-27T05:18:03.603Z,74.80
2018-06-27T05:20:32.983Z,74.31
2018-06-27T05:23:02.686Z,74.44
2018-06-27T05:25:32.049Z,74.20
2018-06-27T05:28:01.348Z,73.38
2018-06-27T05:30:31.137Z,74.08
2018-06-27T05:33:00.543Z,73.75
2018-06-27T05:35:29.944Z,73.61
2018-06-27T05:38:00.210Z,74.23
2018-06-27T05:40:29.557Z,74.37
2018-06-27T05:42:58.885Z,73.77
2018-06-27T05:45:28.234Z,73.69
2018-06-27T05:47:57.704Z,73.62
2018-06-27T05:50:28.041Z,72.40
2018-06-27T05:52:57.376Z,72.65
2018-06-27T05:55:27.083Z,72.20
2018-06-27T05:57:56.935Z,72.43
2018-06-27T06:00:26.661Z,72.20
2018-06-27T06:02:56.736Z,71.96
2018-06-27T06:05:26.312Z,72.15
2018-06-27T06:07:56.006Z,71.98
2018-06-27T06:10:25.659Z,72.45
2018-06-27T06:12:55.948Z,71.80
2018-06-27T06:15:25.334Z,71.56
2018-06-27T06:17:55.744Z,70.84
2018-06-27T06:20:25.401Z,69.91
2018-06-27T06:22:54.753Z,69.68
2018-06-27T06:25:24.487Z,69.76
2018-06-27T06:27:54.491Z,69.48
2018-06-27T06:30:24.254Z,69.39
2018-06-27T06:32:53.664Z,69.14
2018-06-27T06:35:23.040Z,67.95
2018-06-27T06:37:53.263Z,67.95
2018-06-27T06:40:23.576Z,66.73
2018-06-27T06:42:53.353Z,66.97
2018-06-27T06:45:23.024Z,66.50
2018-06-27T06:47:52.391Z,65.39
2018-06-27T06:50:22.462Z,66.51
2018-06-27T06:52:53.260Z,66.75
2018-06-27T06:55:22.991Z,67.08
2018-06-27T06:57:53.193Z,66.15
2018-06-27T07:00:23.020Z,65.07
2018-06-27T07:02:52.683Z,63.86
2018-06-27T07:05:22.308Z,64.40
2018-06-27T07:07:51.925Z,63.94
2018-06-27T07:10:21.261Z,63.71
2018-06-27T07:12:50.963Z,62.76
2018-06-27T07:15:20.662Z,62.80
2018-06-27T07:17:50.079Z,63.18
2018-06-27T07:20:19.754Z,62.17
2018-06-27T07:22:49.981Z,61.66
2018-06-27T07:25:19.376Z,62.19
2018-06-27T07:27:49.106Z,61.13
2018-06-27T07:30:22.181Z,60.90
2018-06-27T07:32:51.804Z,60.30
2018-06-27T07:35:21.555Z,60.14
2018-06-27T07:37:51.189Z,59.47
2018-06-27T07:40:20.899Z,59.25
2018-06-27T07:42:50.241Z,59.40
2018-06-27T07:45:19.981Z,58.43
2018-06-27T07:47:49.360Z,57.72
2018-06-27T07:50:19.028Z,56.66
2018-06-27T07:52:48.400Z,56.04
2018-06-27T07:55:17.747Z,55.48
2018-06-27T07:57:47.444Z,53.59
2018-06-27T08:00:17.016Z,52.97
2018-06-27T08:02:46.357Z,52.59
2018-06-27T08:05:15.980Z,51.99
2018-06-27T08:07:45.341Z,53.05
2018-06-27T08:10:15.128Z,52.66
2018-06-27T08:12:44.922Z,51.51
2018-06-27T08:15:14.600Z,50.84
2018-06-27T08:20:12.000Z,51.33
2018-06-27T08:22:41.345Z,51.39
2018-06-27T08:25:10.960Z,50.80
2018-06-27T08:27:40.333Z,50.39
2018-06-27T08:30:10.119Z,50.61
2018-06-27T08:32:39.456Z,50.75
2018-06-27T08:35:10.070Z,50.39
2018-06-27T08:37:39.441Z,50.40
2018-06-27T08:40:08.792Z,49.36
2018-06-27T08:42:38.581Z,49.82
2018-06-27T08:45:07.898Z,49.31
2018-06-27T08:47:37.297Z,49.35
2018-06-27T08:50:06.667Z,49.93
2018-06-27T08:52:36.449Z,45.40
2018-06-27T08:55:06.116Z,46.13
2018-06-27T08:57:36.129Z,46.39
2018-06-27T09:00:05.490Z,45.20
2018-06-27T09:02:35.305Z,44.22
2018-06-27T09:05:04.995Z,46.38
2018-06-27T09:07:34.340Z,44.90
2018-06-27T09:10:05.108Z,45.80
2018-06-27T09:12:34.456Z,45.66
2018-06-27T09:15:03.864Z,44.55
2018-06-27T09:17:33.172Z,42.11
2018-06-27T09:20:03.977Z,41.58
2018-06-27T09:22:34.437Z,39.63
2018-06-27T09:25:04.868Z,38.72
2018-06-27T09:27:34.180Z,38.65
2018-06-27T09:30:03.918Z,38.92
2018-06-27T09:32:33.256Z,38.67
2018-06-27T09:35:02.683Z,37.44
2018-06-27T09:37:32.356Z,37.77
2018-06-27T09:40:01.724Z,38.01
2018-06-27T09:42:31.060Z,37.46
2018-06-27T09:45:00.450Z,37.46
2018-06-27T09:47:30.484Z,38.08
2018-06-27T09:49:59.837Z,35.58
2018-06-27T09:52:29.414Z,35.14
2018-06-27T09:54:59.824Z,34.94
2018-06-27T09:57:29.135Z,35.56
2018-06-27T09:59:58.469Z,35.33
2018-06-27T10:02:27.860Z,36.01
2018-06-27T10:04:57.640Z,34.99
2018-06-27T10:07:27.259Z,33.37
2018-06-27T10:09:57.036Z,33.19
2018-06-27T10:12:27.760Z,32.64
2018-06-27T10:14:57.596Z,30.65
2018-06-27T10:17:26.936Z,31.34
2018-06-27T10:19:56.264Z,30.68
2018-06-27T10:22:25.927Z,29.71
2018-06-27T10:24:55.274Z,30.80
2018-06-27T10:27:24.633Z,31.04
2018-06-27T10:29:54.446Z,30.09
2018-06-27T10:32:24.019Z,30.08
2018-06-27T10:34:53.380Z,29.60
2018-06-27T10:37:23.255Z,29.45
2018-06-27T10:39:52.615Z,30.17
2018-06-27T10:42:22.269Z,30.15
2018-06-27T10:44:51.645Z,29.46
2018-06-27T10:47:21.508Z,30.74
2018-06-27T10:49:51.157Z,31.56
2018-06-27T10:52:21.747Z,31.39
2018-06-27T10:54:52.773Z,32.22
2018-06-27T10:57:23.284Z,32.10
2018-06-27T10:59:53.584Z,31.14
2018-06-27T11:02:23.448Z,32.17
2018-06-27T11:04:52.755Z,29.64
2018-06-27T11:07:22.130Z,28.92
2018-06-27T11:09:51.748Z,30.52
2018-06-27T11:12:21.107Z,31.70
2018-06-27T11:14:51.458Z,31.01
2018-06-27T11:17:20.787Z,31.53
2018-06-27T11:19:50.096Z,30.86
2018-06-27T11:22:19.459Z,30.76
2018-06-27T11:24:49.041Z,30.18
2018-06-27T11:27:18.642Z,30.61
2018-06-27T11:29:48.237Z,31.92
2018-06-27T11:32:17.908Z,31.87
2018-06-27T11:34:47.590Z,31.56
2018-06-27T11:37:17.583Z,31.54
2018-06-27T11:39:46.922Z,30.97
2018-06-27T11:42:16.697Z,30.78
2018-06-27T11:44:46.265Z,30.63
2018-06-27T11:47:15.633Z,31.30
2018-06-27T11:49:45.955Z,30.36
2018-06-27T11:52:15.319Z,31.15
2018-06-27T11:54:44.699Z,30.79
2018-06-27T11:57:14.468Z,30.13
2018-06-27T11:59:43.777Z,30.13
2018-06-27T12:02:13.127Z,29.46
2018-06-27T12:04:42.460Z,29.85
2018-06-27T12:07:11.835Z,30.01
2018-06-27T12:09:41.603Z,30.29
2018-06-27T12:12:10.952Z,29.74
2018-06-27T12:14:40.282Z,28.87
2018-06-27T12:17:09.606Z,30.75
2018-06-27T12:19:38.973Z,30.74
2018-06-27T12:22:08.460Z,32.40
2018-06-27T12:24:38.184Z,33.02
2018-06-27T12:27:07.556Z,31.87
2018-06-27T12:29:36.925Z,30.84
2018-06-27T12:32:06.632Z,29.77
2018-06-27T12:34:36.307Z,28.43
2018-06-27T12:37:06.553Z,28.68
2018-06-27T12:39:35.926Z,27.94
2018-06-27T12:42:06.892Z,27.27
2018-06-27T12:44:36.523Z,27.31
2018-06-27T12:47:05.899Z,27.92
2018-06-27T12:49:35.510Z,28.15
2018-06-27T12:52:05.277Z,27.45
2018-06-27T12:54:36.749Z,27.19
2018-06-27T12:57:06.893Z,27.28
2018-06-27T12:59:36.523Z,27.59
2018-06-27T13:02:06.208Z,27.30
2018-06-27T13:04:35.568Z,27.83
2018-06-27T13:07:05.185Z,30.26
2018-06-27T13:09:34.867Z,29.93
2018-06-27T13:12:04.590Z,29.29
2018-06-27T13:14:33.964Z,27.06
2018-06-27T13:17:03.520Z,26.71
2018-06-27T13:19:33.044Z,26.67
2018-06-27T13:22:03.291Z,26.80
2018-06-27T13:24:33.852Z,27.98
2018-06-27T13:27:03.656Z,28.73
2018-06-27T13:29:33.541Z,28.76
2018-06-27T13:32:04.065Z,28.08
2018-06-27T13:34:33.413Z,28.02
2018-06-27T13:37:03.037Z,25.68
2018-06-27T13:39:33.017Z,26.17
2018-06-27T13:42:02.346Z,26.64
2018-06-27T13:44:31.763Z,27.38
2018-06-27T13:47:01.152Z,26.06
2018-06-27T13:49:30.560Z,25.27
2018-06-27T13:52:00.310Z,24.29
2018-06-27T13:54:30.237Z,24.93
2018-06-27T13:56:59.650Z,23.65
2018-06-27T13:59:29.164Z,23.42
2018-06-27T14:01:58.751Z,24.19
2018-06-27T14:04:28.098Z,23.90
2018-06-27T14:06:58.356Z,23.02
2018-06-27T14:09:28.120Z,22.75
2018-06-27T14:11:57.862Z,23.20
2018-06-27T14:14:27.428Z,22.85
2018-06-27T14:16:57.816Z,22.65
2018-06-27T14:19:28.545Z,22.66
2018-06-27T14:21:58.287Z,23.01
2018-06-27T14:24:27.711Z,23.50
2018-06-27T14:26:57.304Z,23.14
2018-06-27T14:29:26.604Z,24.13
2018-06-27T14:31:55.964Z,23.85
2018-06-27T14:34:25.587Z,23.35
2018-06-27T14:36:55.105Z,22.94
2018-06-27T14:39:24.737Z,23.06
2018-06-27T14:41:54.311Z,22.82
2018-06-27T14:44:24.363Z,23.43
2018-06-27T14:46:54.542Z,23.84
2018-06-27T14:49:23.858Z,23.53
2018-06-27T14:51:53.848Z,22.11
2018-06-27T14:54:23.164Z,21.51
2018-06-27T14:56:52.561Z,21.68
2018-06-27T14:59:23.340Z,22.54
2018-06-27T15:01:52.905Z,23.03
2018-06-27T15:04:22.292Z,22.51
2018-06-27T15:06:52.021Z,22.76
2018-06-27T15:09:21.453Z,21.95
2018-06-27T15:11:50.758Z,21.74
2018-06-27T15:14:20.167Z,21.71
2018-06-27T15:16:49.586Z,22.30
2018-06-27T15:19:19.160Z,22.66
2018-06-27T15:21:49.343Z,22.38
2018-06-27T15:24:20.271Z,23.81
2018-06-27T15:26:50.305Z,23.23
2018-06-27T15:29:20.870Z,22.98
2018-06-27T15:31:50.956Z,21.80
2018-06-27T15:34:20.863Z,21.92
2018-06-27T15:36:50.468Z,21.30
2018-06-27T15:39:20.129Z,21.96
2018-06-27T15:41:49.457Z,22.79
2018-06-27T15:44:19.517Z,24.08
2018-06-27T15:46:49.748Z,24.27
2018-06-27T15:49:23.395Z,24.22
2018-06-27T15:51:52.730Z,24.83
2018-06-27T15:54:22.089Z,24.38
2018-06-27T15:56:51.516Z,23.79
2018-06-27T15:59:21.718Z,23.57
2018-06-27T16:01:51.405Z,23.72
2018-06-27T16:04:22.007Z,23.91
2018-06-27T16:06:51.321Z,23.69
2018-06-27T16:09:20.688Z,24.06
2018-06-27T16:11:50.454Z,23.78
2018-06-27T16:14:19.994Z,23.10
2018-06-27T16:16:49.440Z,23.42
2018-06-27T16:19:19.431Z,22.31
2018-06-27T16:21:49.094Z,22.41
2018-06-27T16:24:18.475Z,23.87
2018-06-27T16:26:48.685Z,23.19
2018-06-27T16:29:18.005Z,23.29
2018-06-27T16:31:47.691Z,23.68
2018-06-27T16:34:17.099Z,23.19
2018-06-27T16:36:46.922Z,23.66
2018-06-27T16:39:16.403Z,23.97
2018-06-27T16:41:46.054Z,25.02
2018-06-27T16:44:15.688Z,24.47
2018-06-27T16:46:45.460Z,24.35
2018-06-27T16:49:14.805Z,24.11
2018-06-27T16:51:44.226Z,23.63
2018-06-27T16:54:14.041Z,22.55
2018-06-27T16:56:43.598Z,23.24
2018-06-27T16:59:13.418Z,23.13
2018-06-27T17:01:42.781Z,23.03
2018-06-27T17:04:12.145Z,23.21
2018-06-27T17:06:41.450Z,23.30
2018-06-27T17:09:11.276Z,23.66
2018-06-27T17:11:41.000Z,23.41
2018-06-27T17:14:10.545Z,24.12
2018-06-27T17:16:39.930Z,24.36
2018-06-27T17:19:09.904Z,24.20
2018-06-27T17:21:39.546Z,24.37
2018-06-27T17:24:09.732Z,24.25
2018-06-27T17:26:39.153Z,24.26
2018-06-27T17:29:08.513Z,24.81
2018-06-27T17:31:38.199Z,24.63
2018-06-27T17:34:07.980Z,24.42
2018-06-27T17:36:37.694Z,24.82
2018-06-27T17:39:08.852Z,24.59
2018-06-27T17:41:38.832Z,25.25
2018-06-27T17:44:08.541Z,24.85
2018-06-27T17:46:37.910Z,25.08
2018-06-27T17:49:08.370Z,24.93
2018-06-27T17:51:38.302Z,25.08
2018-06-27T17:54:07.823Z,25.04
2018-06-27T17:56:37.152Z,25.55
2018-06-27T17:59:08.493Z,25.64
2018-06-27T18:01:38.218Z,26.72
2018-06-27T18:04:08.547Z,27.31
2018-06-27T18:06:37.994Z,27.23
2018-06-27T18:09:09.241Z,27.53
2018-06-27T18:11:39.404Z,27.13
2018-06-27T18:14:08.782Z,27.32
2018-06-27T18:16:38.190Z,28.10
2018-06-27T18:19:08.022Z,29.13
2018-06-27T18:21:37.351Z,28.93
2018-06-27T18:24:08.197Z,29.58
2018-06-27T18:26:37.547Z,30.93
2018-06-27T18:29:07.712Z,31.41
2018-06-27T18:31:38.896Z,31.27
2018-06-27T18:34:08.320Z,31.82
2018-06-27T18:36:37.639Z,32.12
2018-06-27T18:39:09.561Z,32.51
2018-06-27T18:41:39.433Z,32.69
2018-06-27T18:44:09.201Z,32.81
2018-06-27T18:46:38.536Z,32.47
2018-06-27T18:49:08.169Z,32.82
2018-06-27T18:51:37.505Z,31.82
2018-06-27T18:54:07.174Z,32.13
2018-06-27T18:56:36.749Z,32.24
2018-06-27T18:59:06.217Z,31.79
2018-06-27T19:01:35.986Z,32.29
2018-06-27T19:04:05.821Z,32.11
2018-06-27T19:06:35.133Z,32.45
2018-06-27T19:09:07.007Z,32.42
2018-06-27T19:11:36.547Z,33.07
2018-06-27T19:14:06.233Z,33.17
2018-06-27T19:16:36.057Z,32.86
2018-06-27T19:19:06.001Z,33.35
2018-06-27T19:21:36.335Z,33.57
2018-06-27T19:24:05.878Z,34.57
2018-06-27T19:26:35.248Z,34.48
2018-06-27T19:29:05.485Z,35.43
2018-06-27T19:31:35.509Z,36.01
2018-06-27T19:34:05.253Z,36.52
2018-06-27T19:36:35.091Z,36.24
2018-06-27T19:39:06.673Z,36.75
2018-06-27T19:41:36.464Z,37.09
2018-06-27T19:44:05.732Z,36.66
2018-06-27T19:46:35.684Z,37.24
2018-06-27T19:49:05.824Z,36.70
2018-06-27T19:51:35.521Z,36.83
2018-06-27T19:54:05.250Z,37.34
2018-06-27T19:56:34.621Z,37.54
2018-06-27T19:59:03.978Z,38.15
2018-06-27T20:01:33.707Z,37.53
2018-06-27T20:04:03.031Z,38.19
2018-06-27T20:06:32.390Z,37.64
2018-06-27T20:09:02.924Z,38.01
2018-06-27T20:11:33.910Z,38.01
2018-06-27T20:14:03.660Z,38.39
2018-06-27T20:16:33.551Z,38.82
2018-06-27T20:19:02.977Z,39.01
2018-06-27T20:21:32.429Z,38.34
2018-06-27T20:24:02.181Z,38.12
2018-06-27T20:26:31.464Z,38.23
2018-06-27T20:29:00.819Z,38.70
2018-06-27T20:31:30.684Z,38.66
2018-06-27T20:34:00.028Z,39.46
2018-06-27T20:36:29.357Z,39.56
2018-06-27T20:38:58.704Z,39.40
2018-06-27T20:41:28.117Z,40.99
2018-06-27T20:43:57.816Z,40.92
2018-06-27T20:46:27.143Z,41.79
2018-06-27T20:48:56.873Z,41.86
2018-06-27T20:51:26.405Z,41.78
2018-06-27T20:53:55.995Z,42.07
2018-06-27T20:56:25.676Z,42.88
2018-06-27T20:58:55.388Z,42.74
2018-06-27T21:01:25.510Z,43.71
2018-06-27T21:03:56.382Z,42.81
2018-06-27T21:06:25.697Z,43.08
2018-06-27T21:08:55.082Z,44.22
2018-06-27T21:11:25.328Z,44.37
2018-06-27T21:13:55.239Z,44.56
2018-06-27T21:16:24.868Z,44.40
2018-06-27T21:18:54.463Z,44.38
2018-06-27T21:21:23.804Z,44.97
2018-06-27T21:23:53.458Z,44.63
2018-06-27T21:26:23.055Z,45.60
2018-06-27T21:28:52.372Z,45.17
2018-06-27T21:31:24.474Z,46.06
2018-06-27T21:33:54.098Z,46.80
2018-06-27T21:36:23.408Z,46.44
2018-06-27T21:38:53.120Z,46.17
2018-06-27T21:41:22.688Z,46.59
2018-06-27T21:43:52.436Z,46.30
2018-06-27T21:46:21.798Z,46.39
2018-06-27T21:48:51.125Z,46.54
2018-06-27T21:51:20.458Z,45.95
2018-06-27T21:53:49.807Z,46.15
2018-06-27T21:56:20.119Z,45.92
2018-06-27T21:58:49.457Z,46.01
2018-06-27T22:01:18.748Z,46.00
2018-06-27T22:03:48.669Z,46.48
2018-06-27T22:06:18.219Z,46.66
2018-06-27T22:08:47.856Z,46.93
2018-06-27T22:11:17.937Z,47.44
2018-06-27T22:13:47.395Z,47.45
2018-06-27T22:16:17.037Z,47.69
2018-06-27T22:18:46.719Z,46.90
2018-06-27T22:21:16.119Z,46.96
2018-06-27T22:23:45.827Z,47.37
2018-06-27T22:26:15.177Z,47.57
2018-06-27T22:28:45.105Z,47.30
2018-06-27T22:31:14.692Z,47.21
2018-06-27T22:33:45.901Z,47.35
2018-06-27T22:36:15.277Z,47.61
2018-06-27T22:38:44.608Z,47.86
2018-06-27T22:41:14.321Z,47.44
2018-06-27T22:43:43.890Z,48.62
2018-06-27T22:46:13.224Z,48.15
2018-06-27T22:48:43.590Z,48.35
2018-06-27T22:51:12.972Z,48.82
2018-06-27T22:53:42.323Z,49.14
2018-06-27T22:56:12.027Z,48.48
2018-06-27T22:58:42.153Z,49.00
2018-06-27T23:01:11.980Z,49.21
2018-06-27T23:03:41.313Z,49.42
2018-06-27T23:06:10.930Z,48.56
2018-06-27T23:08:41.154Z,48.31
2018-06-27T23:11:10.901Z,49.25
2018-06-27T23:13:40.208Z,49.78
2018-06-27T23:16:09.559Z,50.09
2018-06-27T23:18:38.878Z,51.54
2018-06-27T23:21:08.489Z,51.64
2018-06-27T23:23:37.813Z,52.29
2018-06-27T23:26:08.187Z,52.57
2018-06-27T23:28:37.846Z,53.46
2018-06-27T23:31:07.501Z,52.67
2018-06-27T23:33:36.855Z,52.68
2018-06-27T23:36:06.190Z,52.39
2018-06-27T23:38:35.559Z,52.23
2018-06-27T23:41:05.263Z,52.30
2018-06-27T23:43:34.596Z,52.06
2018-06-27T23:46:04.588Z,52.47
2018-06-27T23:48:34.404Z,52.45
2018-06-27T23:51:03.886Z,52.46
2018-06-27T23:53:33.348Z,53.24
2018-06-27T23:56:02.940Z,52.83
2018-06-27T23:58:33.011Z,53.56
